Terminal Aerodrome Forecast
Issued by NWS

Home | Current Version | Previous Version | Text Only | Print | Product List | Glossary On
Versions: 1 2 3 4 5 6 7 8 9 10 11
000
FTUS42 TJSJ 281700
TAFJSJ
TAF
TJSJ 281739Z 2818/2918 07015G20KT P6SM FEW030 SCT050
     FM282330 11005KT P6SM FEW025
     FM291300 08012KT P6SM SCT025=

USA.gov is the U.S. government's official web portal to all federal, state and local government web resources and services.